createdAt,value
2023-04-24T00:01:49.243Z,1.08
2023-04-24T00:04:19.468Z,0.98
2023-04-24T00:06:50.506Z,1.30
2023-04-24T00:09:18.591Z,1.40
2023-04-24T00:11:46.699Z,1.38
2023-04-24T00:14:14.791Z,1.20
2023-04-24T00:16:44.356Z,1.00
2023-04-24T00:19:13.773Z,1.05
2023-04-24T00:21:43.697Z,1.80
2023-04-24T00:24:11.890Z,1.33
2023-04-24T00:26:40.045Z,0.95
2023-04-24T00:29:08.186Z,1.00
2023-04-24T00:31:36.419Z,0.98
2023-04-24T00:34:05.248Z,1.23
2023-04-24T00:36:33.582Z,0.98
2023-04-24T00:39:03.406Z,1.10
2023-04-24T00:41:31.962Z,1.00
2023-04-24T00:44:00.368Z,1.45
2023-04-24T00:46:28.591Z,1.10
2023-04-24T00:48:58.446Z,0.90
2023-04-24T00:51:26.603Z,1.35
2023-04-24T00:53:54.800Z,1.10
2023-04-24T00:56:24.436Z,1.25
2023-04-24T00:58:52.769Z,1.58
2023-04-24T01:01:22.774Z,1.20
2023-04-24T01:03:55.084Z,1.10
2023-04-24T01:06:24.593Z,1.80
2023-04-24T01:08:52.799Z,1.10
2023-04-24T01:11:20.840Z,0.95
2023-04-24T01:13:50.722Z,1.13
2023-04-24T01:16:21.874Z,1.00
2023-04-24T01:18:50.277Z,1.00
2023-04-24T01:21:21.527Z,1.17
2023-04-24T01:23:51.122Z,1.00
2023-04-24T01:26:21.331Z,1.00
2023-04-24T01:28:50.127Z,0.93
2023-04-24T01:31:18.656Z,1.25
2023-04-24T01:33:47.323Z,0.93
2023-04-24T01:36:15.876Z,0.90
2023-04-24T01:38:43.938Z,1.10
2023-04-24T01:41:13.366Z,1.20
2023-04-24T01:43:41.752Z,0.98
2023-04-24T01:46:10.199Z,1.10
2023-04-24T01:48:38.390Z,1.10
2023-04-24T01:51:06.588Z,0.80
2023-04-24T01:53:34.895Z,1.00
2023-04-24T01:56:05.155Z,0.80
2023-04-24T01:58:34.784Z,1.00
2023-04-24T02:01:04.060Z,1.20
2023-04-24T02:03:32.301Z,1.27
2023-04-24T02:06:00.602Z,1.02
2023-04-24T02:08:28.616Z,1.00
2023-04-24T02:10:56.709Z,1.33
2023-04-24T02:13:24.747Z,1.20
2023-04-24T02:15:54.297Z,1.08
2023-04-24T02:18:23.781Z,1.10
2023-04-24T02:20:52.640Z,1.25
2023-04-24T02:23:22.396Z,1.35
2023-04-24T02:25:50.494Z,1.27
2023-04-24T02:28:19.346Z,1.50
2023-04-24T02:30:47.557Z,1.40
2023-04-24T02:33:17.138Z,1.02
2023-04-24T02:35:45.450Z,1.30
2023-04-24T02:38:13.657Z,1.35
2023-04-24T02:40:41.781Z,1.70
2023-04-24T02:43:11.886Z,1.55
2023-04-24T02:45:40.263Z,1.42
2023-04-24T02:48:08.591Z,1.30
2023-04-24T02:50:38.109Z,1.05
2023-04-24T02:53:06.457Z,1.25
2023-04-24T02:55:34.661Z,0.90
2023-04-24T02:58:02.769Z,1.33
2023-04-24T03:00:31.077Z,1.30
2023-04-24T03:02:59.335Z,1.48
2023-04-24T03:05:28.341Z,1.40
2023-04-24T03:07:57.902Z,1.45
2023-04-24T03:10:26.112Z,1.10
2023-04-24T03:12:55.998Z,1.40
2023-04-24T03:15:24.187Z,1.45
2023-04-24T03:17:53.681Z,1.50
2023-04-24T03:20:23.308Z,2.15
2023-04-24T03:22:51.373Z,1.27
2023-04-24T03:25:21.210Z,1.60
2023-04-24T03:27:49.878Z,1.15
2023-04-24T03:30:43.915Z,1.13
2023-04-24T03:33:13.106Z,1.25
2023-04-24T03:35:49.244Z,1.40
2023-04-24T03:38:17.380Z,1.10
2023-04-24T03:41:07.123Z,1.20
2023-04-24T03:43:40.681Z,2.28
2023-04-24T03:46:10.472Z,1.50
2023-04-24T03:48:43.042Z,1.88
2023-04-24T03:51:12.258Z,1.30
2023-04-24T03:53:43.947Z,1.30
2023-04-24T03:56:15.505Z,1.40
2023-04-24T03:58:44.654Z,1.42
2023-04-24T04:01:13.174Z,1.40
2023-04-24T04:03:59.952Z,1.00
2023-04-24T04:06:29.645Z,1.42
2023-04-24T04:08:59.102Z,1.67
2023-04-24T04:11:28.796Z,1.50
2023-04-24T04:13:57.772Z,2.00
2023-04-24T04:16:26.852Z,2.05
2023-04-24T04:19:00.396Z,2.38
2023-04-24T04:21:29.151Z,1.50
2023-04-24T04:24:08.280Z,1.85
2023-04-24T04:26:42.440Z,1.65
2023-04-24T04:29:13.052Z,2.15
2023-04-24T04:31:45.068Z,1.80
2023-04-24T04:34:15.363Z,1.50
2023-04-24T04:36:45.316Z,1.75
2023-04-24T04:39:33.911Z,1.73
2023-04-24T04:42:07.780Z,1.90
2023-04-24T04:44:42.470Z,1.85
2023-04-24T04:47:14.916Z,1.83
2023-04-24T04:49:44.504Z,1.80
2023-04-24T04:52:26.139Z,1.58
2023-04-24T04:55:00.755Z,1.85
2023-04-24T04:57:44.741Z,2.00
2023-04-24T05:00:15.024Z,1.90
2023-04-24T05:02:49.986Z,1.90
2023-04-24T05:05:18.951Z,1.83
2023-04-24T05:07:47.598Z,2.00
2023-04-24T05:10:15.781Z,2.00
2023-04-24T05:12:46.443Z,1.80
2023-04-24T05:15:14.889Z,2.10
2023-04-24T05:17:43.282Z,1.77
2023-04-24T05:20:12.482Z,2.40
2023-04-24T05:22:40.627Z,2.20
2023-04-24T05:25:09.797Z,1.92
2023-04-24T05:27:42.610Z,2.92
2023-04-24T05:30:17.676Z,3.17
2023-04-24T05:32:46.125Z,2.85
2023-04-24T05:35:15.181Z,3.00
2023-04-24T05:37:43.306Z,2.50
2023-04-24T05:40:13.513Z,3.40
2023-04-24T05:42:41.903Z,3.60
2023-04-24T05:45:15.863Z,3.58
2023-04-24T05:47:46.020Z,3.55
2023-04-24T05:50:14.534Z,3.15
2023-04-24T05:52:42.784Z,3.08
2023-04-24T05:55:25.492Z,3.78
2023-04-24T05:57:54.335Z,3.42
2023-04-24T06:00:22.852Z,2.95
2023-04-24T06:03:02.257Z,2.75
2023-04-24T06:05:31.279Z,3.00
2023-04-24T06:07:59.808Z,2.95
2023-04-24T06:10:33.086Z,2.83
2023-04-24T06:13:02.427Z,2.90
2023-04-24T06:15:32.984Z,2.42
2023-04-24T06:18:15.120Z,3.08
2023-04-24T06:20:44.241Z,2.90
2023-04-24T06:23:12.638Z,2.90
2023-04-24T06:25:41.014Z,3.15
2023-04-24T06:28:09.129Z,2.60
2023-04-24T06:30:37.512Z,2.83
2023-04-24T06:33:19.423Z,2.83
2023-04-24T06:35:50.272Z,2.30
2023-04-24T06:38:18.439Z,2.95
2023-04-24T06:40:46.718Z,3.60
2023-04-24T06:43:15.851Z,2.63
2023-04-24T06:45:44.866Z,3.22
2023-04-24T06:48:13.342Z,2.97
2023-04-24T06:50:41.704Z,2.65
2023-04-24T06:53:13.782Z,3.42
2023-04-24T06:55:42.282Z,3.60
2023-04-24T06:58:10.931Z,3.00
2023-04-24T07:00:39.060Z,2.40
2023-04-24T07:03:07.431Z,3.50
2023-04-24T07:05:36.426Z,2.65
2023-04-24T07:08:05.376Z,3.17
2023-04-24T07:10:36.811Z,2.50
2023-04-24T07:13:04.974Z,2.78
2023-04-24T07:15:33.397Z,2.83
2023-04-24T07:18:04.881Z,2.50
2023-04-24T07:20:34.378Z,2.30
2023-04-24T07:23:02.631Z,2.63
2023-04-24T07:25:30.703Z,3.35
2023-04-24T07:28:00.364Z,3.05
2023-04-24T07:30:29.890Z,2.22
2023-04-24T07:32:58.658Z,2.80
2023-04-24T07:35:27.483Z,2.50
2023-04-24T07:37:55.907Z,2.22
2023-04-24T07:40:24.681Z,2.65
2023-04-24T07:42:53.158Z,2.45
2023-04-24T07:45:24.293Z,2.70
2023-04-24T07:47:53.001Z,2.00
2023-04-24T07:50:22.137Z,2.10
2023-04-24T07:52:50.424Z,2.60
2023-04-24T07:55:20.842Z,2.53
2023-04-24T07:57:51.484Z,2.45
2023-04-24T08:00:20.187Z,2.35
2023-04-24T08:02:50.607Z,2.53
2023-04-24T08:05:19.423Z,2.00
2023-04-24T08:07:49.780Z,2.35
2023-04-24T08:10:18.382Z,2.50
2023-04-24T08:12:47.111Z,2.60
2023-04-24T08:15:15.512Z,2.28
2023-04-24T08:17:43.893Z,2.55
2023-04-24T08:20:15.700Z,2.25
2023-04-24T08:22:45.320Z,2.50
2023-04-24T08:25:13.630Z,2.38
2023-04-24T08:27:42.300Z,2.33
2023-04-24T08:30:11.348Z,2.92
2023-04-24T08:32:39.827Z,2.25
2023-04-24T08:35:12.760Z,2.42
2023-04-24T08:37:42.555Z,2.38
2023-04-24T08:40:16.777Z,2.63
2023-04-24T08:42:46.057Z,1.92
2023-04-24T08:45:15.302Z,2.17
2023-04-24T08:47:45.354Z,2.28
2023-04-24T08:50:13.827Z,2.17
2023-04-24T08:52:44.597Z,2.50
2023-04-24T08:55:13.365Z,2.28
2023-04-24T08:57:42.294Z,1.73
2023-04-24T09:00:12.279Z,1.15
2023-04-24T09:02:45.593Z,1.30
2023-04-24T09:05:16.098Z,1.35
2023-04-24T09:07:48.930Z,1.45
2023-04-24T09:10:18.880Z,1.58
2023-04-24T09:12:47.793Z,1.75
2023-04-24T09:15:16.952Z,1.77
2023-04-24T09:17:46.633Z,1.90
2023-04-24T09:20:15.262Z,1.60
2023-04-24T09:22:47.379Z,2.15
2023-04-24T09:25:15.678Z,1.77
2023-04-24T09:27:46.749Z,2.08
2023-04-24T09:30:16.024Z,2.05
2023-04-24T09:32:44.508Z,1.80
2023-04-24T09:35:15.483Z,2.22
2023-04-24T09:37:46.820Z,2.30
2023-04-24T09:40:17.385Z,2.20
2023-04-24T09:42:47.582Z,2.40
2023-04-24T09:45:16.315Z,2.42
2023-04-24T09:47:45.085Z,2.00
2023-04-24T09:50:17.849Z,1.98
2023-04-24T09:52:57.719Z,2.85
2023-04-24T09:55:27.722Z,2.70
2023-04-24T09:57:57.669Z,2.20
2023-04-24T10:00:28.399Z,1.95
2023-04-24T10:03:01.091Z,2.00
2023-04-24T10:05:31.175Z,2.17
2023-04-24T10:08:04.253Z,1.90
2023-04-24T10:10:33.140Z,2.00
2023-04-24T10:13:01.977Z,2.58
2023-04-24T10:15:30.342Z,1.77
2023-04-24T10:18:00.913Z,1.73
2023-04-24T10:20:31.958Z,2.28
2023-04-24T10:23:02.740Z,2.35
2023-04-24T10:25:33.674Z,2.45
2023-04-24T10:28:03.630Z,2.05
2023-04-24T10:30:36.078Z,1.80
2023-04-24T10:33:05.516Z,2.40
2023-04-24T10:35:36.482Z,1.90
2023-04-24T10:38:10.540Z,1.95
2023-04-24T10:40:39.624Z,2.35
2023-04-24T10:43:11.946Z,2.10
2023-04-24T10:45:41.020Z,2.05
2023-04-24T10:48:15.152Z,2.40
2023-04-24T10:50:48.599Z,1.83
2023-04-24T10:53:20.743Z,2.10
2023-04-24T10:55:53.174Z,2.08
2023-04-24T10:58:25.300Z,2.55
2023-04-24T11:00:59.776Z,1.95
2023-04-24T11:03:30.362Z,2.03
2023-04-24T11:06:01.553Z,2.38
2023-04-24T11:08:33.538Z,2.30
2023-04-24T11:11:04.651Z,2.35
2023-04-24T11:14:08.962Z,2.60
2023-04-24T11:16:47.641Z,3.15
2023-04-24T11:19:26.059Z,2.95
2023-04-24T11:22:01.440Z,2.40
2023-04-24T11:24:33.888Z,2.08
2023-04-24T11:27:09.134Z,1.80
2023-04-24T11:29:42.788Z,1.75
2023-04-24T11:32:25.436Z,2.15
2023-04-24T11:34:55.277Z,1.70
2023-04-24T11:37:24.856Z,3.08
2023-04-24T11:39:56.017Z,2.03
2023-04-24T11:42:26.505Z,2.28
2023-04-24T11:44:56.555Z,2.50
2023-04-24T11:47:32.248Z,2.38
2023-04-24T11:50:01.974Z,2.95
2023-04-24T11:52:31.970Z,3.25
2023-04-24T11:55:02.256Z,2.58
2023-04-24T11:57:34.924Z,2.25
2023-04-24T12:00:04.491Z,2.50
2023-04-24T12:02:40.882Z,2.25
2023-04-24T12:05:10.290Z,2.33
2023-04-24T12:07:44.190Z,1.65
2023-04-24T12:10:13.953Z,2.50
2023-04-24T12:12:42.175Z,2.30
2023-04-24T12:15:11.316Z,2.30
2023-04-24T12:17:44.039Z,2.30
2023-04-24T12:20:13.687Z,2.30
2023-04-24T12:22:47.557Z,2.63
2023-04-24T12:25:18.785Z,2.28
2023-04-24T12:27:47.610Z,2.53
2023-04-24T12:30:17.054Z,2.40
2023-04-24T12:32:47.148Z,2.00
2023-04-24T12:35:16.140Z,2.20
2023-04-24T12:37:47.278Z,2.13
2023-04-24T12:40:17.962Z,2.40
2023-04-24T12:42:47.872Z,2.42
2023-04-24T12:45:16.788Z,2.45
2023-04-24T12:47:46.573Z,2.60
2023-04-24T12:50:16.754Z,3.20
2023-04-24T12:52:45.448Z,2.83
2023-04-24T12:55:14.169Z,3.40
2023-04-24T12:57:43.853Z,3.05
2023-04-24T13:00:12.688Z,3.50
2023-04-24T13:02:41.416Z,3.55
2023-04-24T13:05:12.608Z,3.60
2023-04-24T13:07:40.857Z,3.60
2023-04-24T13:10:10.287Z,3.30
2023-04-24T13:12:38.672Z,3.10
2023-04-24T13:15:09.648Z,3.95
2023-04-24T13:17:37.786Z,4.70
2023-04-24T13:20:06.988Z,2.60
2023-04-24T13:22:35.297Z,4.00
2023-04-24T13:25:03.445Z,3.65
2023-04-24T13:27:31.995Z,3.20
2023-04-24T13:30:00.882Z,3.72
2023-04-24T13:32:30.534Z,3.33
2023-04-24T13:34:59.010Z,3.45
2023-04-24T13:37:27.297Z,2.85
2023-04-24T13:39:55.750Z,3.80
2023-04-24T13:42:23.840Z,2.47
2023-04-24T13:44:52.356Z,2.90
2023-04-24T13:47:20.926Z,3.55
2023-04-24T13:49:50.831Z,2.85
2023-04-24T13:52:19.122Z,3.60
2023-04-24T13:54:47.532Z,2.67
2023-04-24T13:57:16.740Z,3.20
2023-04-24T13:59:46.341Z,3.67
2023-04-24T14:02:14.575Z,2.70
2023-04-24T14:04:42.940Z,4.03
2023-04-24T14:07:12.619Z,3.00
2023-04-24T14:09:40.954Z,3.30
2023-04-24T14:12:09.139Z,3.70
2023-04-24T14:14:37.510Z,2.88
2023-04-24T14:17:05.734Z,2.58
2023-04-24T14:19:33.907Z,3.33
2023-04-24T14:22:02.582Z,3.33
2023-04-24T14:24:32.125Z,2.53
2023-04-24T14:27:00.563Z,2.70
2023-04-24T14:29:29.078Z,3.40
2023-04-24T14:31:57.212Z,2.58
2023-04-24T14:34:25.681Z,2.67
2023-04-24T14:36:54.844Z,2.90
2023-04-24T14:39:23.107Z,3.35
2023-04-24T14:41:52.721Z,3.47
2023-04-24T14:44:21.000Z,3.30
2023-04-24T14:46:50.442Z,3.30
2023-04-24T14:49:18.631Z,3.35
2023-04-24T14:51:46.792Z,3.30
2023-04-24T14:54:15.667Z,3.28
2023-04-24T14:56:45.341Z,2.90
2023-04-24T14:59:14.811Z,3.03
2023-04-24T15:01:43.222Z,2.72
2023-04-24T15:04:11.797Z,2.80
2023-04-24T15:06:40.108Z,2.95
2023-04-24T15:09:08.383Z,3.03
2023-04-24T15:11:36.997Z,2.85
2023-04-24T15:14:05.419Z,2.38
2023-04-24T15:16:35.459Z,2.10
2023-04-24T15:19:03.670Z,2.08
2023-04-24T15:21:32.404Z,2.47
2023-04-24T15:24:00.701Z,2.50
2023-04-24T15:26:28.941Z,2.28
2023-04-24T15:28:57.094Z,2.28
2023-04-24T15:31:25.667Z,1.95
2023-04-24T15:33:55.266Z,2.30
2023-04-24T15:36:23.772Z,2.42
2023-04-24T15:38:52.120Z,2.28
2023-04-24T15:41:20.220Z,2.28
2023-04-24T15:43:48.957Z,2.45
2023-04-24T15:46:17.789Z,2.83
2023-04-24T15:48:46.493Z,2.63
2023-04-24T15:51:15.974Z,2.20
2023-04-24T15:53:44.295Z,2.45
2023-04-24T15:56:12.502Z,2.20
2023-04-24T15:58:41.378Z,1.73
2023-04-24T16:01:09.563Z,2.25
2023-04-24T16:03:38.215Z,2.45
2023-04-24T16:06:06.951Z,2.40
2023-04-24T16:08:36.550Z,2.20
2023-04-24T16:11:04.791Z,2.03
2023-04-24T16:13:34.402Z,2.55
2023-04-24T16:16:02.711Z,2.40
2023-04-24T16:18:30.782Z,2.75
2023-04-24T16:20:58.847Z,2.55
2023-04-24T16:23:27.131Z,2.20
2023-04-24T16:25:56.773Z,2.15
2023-04-24T16:28:24.880Z,2.42
2023-04-24T16:30:53.367Z,1.75
2023-04-24T16:33:21.540Z,2.40
2023-04-24T16:35:49.744Z,2.30
2023-04-24T16:38:17.969Z,1.92
2023-04-24T16:40:46.245Z,1.85
2023-04-24T16:43:15.941Z,1.80
2023-04-24T16:45:44.094Z,2.13
2023-04-24T16:48:12.466Z,1.70
2023-04-24T16:50:40.782Z,1.95
2023-04-24T16:53:08.891Z,1.63
2023-04-24T16:55:37.040Z,1.52
2023-04-24T16:58:05.435Z,1.70
2023-04-24T17:00:35.381Z,1.88
2023-04-24T17:03:03.743Z,2.00
2023-04-24T17:05:31.977Z,1.50
2023-04-24T17:08:00.467Z,1.67
2023-04-24T17:10:29.027Z,1.58
2023-04-24T17:12:57.340Z,2.30
2023-04-24T17:15:26.041Z,2.00
2023-04-24T17:17:56.827Z,2.00
2023-04-24T17:20:26.380Z,1.95
2023-04-24T17:22:55.754Z,2.10
2023-04-24T17:25:24.243Z,1.58
2023-04-24T17:27:52.587Z,1.95
2023-04-24T17:30:21.084Z,2.10
2023-04-24T17:32:49.484Z,2.30
2023-04-24T17:35:20.866Z,2.05
2023-04-24T17:37:50.715Z,2.10
2023-04-24T17:40:19.152Z,2.10
2023-04-24T17:42:47.452Z,2.03
2023-04-24T17:45:15.782Z,2.13
2023-04-24T17:47:43.943Z,2.17
2023-04-24T17:50:12.587Z,2.35
2023-04-24T17:52:42.471Z,2.47
2023-04-24T17:55:10.916Z,2.38
2023-04-24T17:57:39.214Z,2.63
2023-04-24T18:00:10.298Z,2.55
2023-04-24T18:02:39.067Z,1.95
2023-04-24T18:05:14.269Z,2.53
2023-04-24T18:07:47.884Z,2.45
2023-04-24T18:10:20.575Z,3.03
2023-04-24T18:12:52.841Z,2.83
2023-04-24T18:15:24.368Z,2.53
2023-04-24T18:17:58.403Z,2.50
2023-04-24T18:20:34.814Z,2.20
2023-04-24T18:23:08.954Z,3.03
2023-04-24T18:25:39.967Z,3.10
2023-04-24T18:28:14.337Z,2.58
2023-04-24T18:30:49.643Z,2.20
2023-04-24T18:33:25.083Z,3.30
2023-04-24T18:35:58.859Z,2.75
2023-04-24T18:38:31.158Z,2.75
2023-04-24T18:41:06.140Z,2.47
2023-04-24T18:43:43.472Z,3.33
2023-04-24T18:46:20.197Z,3.33
2023-04-24T18:48:57.598Z,3.35
2023-04-24T18:51:37.813Z,2.83
2023-04-24T18:54:16.997Z,2.80
2023-04-24T18:56:49.875Z,3.03
2023-04-24T18:59:23.774Z,3.60
2023-04-24T19:01:59.325Z,3.20
2023-04-24T19:04:35.550Z,3.47
2023-04-24T19:07:07.830Z,3.15
2023-04-24T19:09:38.933Z,3.67
2023-04-24T19:12:12.421Z,3.22
2023-04-24T19:18:10.218Z,3.40
2023-04-24T19:21:03.325Z,3.75
2023-04-24T19:23:43.520Z,4.10
2023-04-24T19:26:24.517Z,3.45
2023-04-24T19:29:01.187Z,3.38
2023-04-24T19:31:35.911Z,3.30
2023-04-24T19:34:10.384Z,2.90
2023-04-24T19:36:44.709Z,3.08
2023-04-24T19:39:14.215Z,3.00
2023-04-24T19:43:30.751Z,2.85
2023-04-24T19:45:59.631Z,2.97
2023-04-24T19:48:35.193Z,3.10
2023-04-24T19:51:06.729Z,4.00
2023-04-24T19:53:37.572Z,4.75
2023-04-24T19:56:09.978Z,3.20
2023-04-24T19:58:46.690Z,3.00
2023-04-24T20:01:19.787Z,3.22
2023-04-24T20:03:52.428Z,3.15
2023-04-24T20:06:26.264Z,3.00
2023-04-24T20:09:01.976Z,3.58
2023-04-24T20:11:35.661Z,3.42
2023-04-24T20:14:08.453Z,2.60
2023-04-24T20:16:42.196Z,3.40
2023-04-24T20:19:17.851Z,3.40
2023-04-24T20:21:53.706Z,3.03
2023-04-24T20:24:28.401Z,2.60
2023-04-24T20:27:02.705Z,2.92
2023-04-24T20:29:38.545Z,4.20
2023-04-24T20:32:15.836Z,3.53
2023-04-24T20:34:49.307Z,3.70
2023-04-24T20:37:17.621Z,3.60
2023-04-24T20:39:46.390Z,3.45
2023-04-24T20:42:16.625Z,2.65
2023-04-24T20:44:46.754Z,2.70
2023-04-24T20:47:15.119Z,4.25
2023-04-24T20:49:43.274Z,3.25
2023-04-24T20:52:11.498Z,3.92
2023-04-24T20:54:41.853Z,2.95
2023-04-24T20:57:10.042Z,2.92
2023-04-24T20:59:38.368Z,3.15
2023-04-24T21:02:08.436Z,3.40
2023-04-24T21:04:38.749Z,2.85
2023-04-24T21:07:07.174Z,3.10
2023-04-24T21:09:35.959Z,3.10
2023-04-24T21:12:04.046Z,3.55
2023-04-24T21:14:32.422Z,4.10
2023-04-24T21:17:01.734Z,4.53
2023-04-24T21:19:31.472Z,3.85
2023-04-24T21:21:59.700Z,4.72
2023-04-24T21:24:27.865Z,3.80
2023-04-24T21:26:56.159Z,4.35
2023-04-24T21:29:24.345Z,4.20
2023-04-24T21:31:53.816Z,4.50
2023-04-24T21:34:21.931Z,3.30
2023-04-24T21:36:51.538Z,3.67
2023-04-24T21:39:19.644Z,4.10
2023-04-24T21:41:47.984Z,3.78
2023-04-24T21:44:16.210Z,3.85
2023-04-24T21:46:44.438Z,3.78
2023-04-24T21:49:12.607Z,3.85
2023-04-24T21:51:40.669Z,4.35
2023-04-24T21:54:10.130Z,3.58
2023-04-24T21:56:38.542Z,3.63
2023-04-24T21:59:06.714Z,3.85
2023-04-24T22:01:35.993Z,2.85
2023-04-24T22:04:04.521Z,3.22
2023-04-24T22:06:33.852Z,3.95
2023-04-24T22:09:01.997Z,3.00
2023-04-24T22:11:31.593Z,3.50
2023-04-24T22:13:59.618Z,3.70
2023-04-24T22:16:30.395Z,3.55
2023-04-24T22:18:59.242Z,3.17
2023-04-24T22:21:27.708Z,3.13
2023-04-24T22:23:55.813Z,3.80
2023-04-24T22:26:23.985Z,3.38
2023-04-24T22:28:53.501Z,3.38
2023-04-24T22:31:21.608Z,3.47
2023-04-24T22:33:50.079Z,3.22
2023-04-24T22:36:18.501Z,3.45
2023-04-24T22:38:46.646Z,3.08
2023-04-24T22:41:15.337Z,2.80
2023-04-24T22:43:43.463Z,2.65
2023-04-24T22:46:12.923Z,2.95
2023-04-24T22:48:41.144Z,2.42
2023-04-24T22:51:09.333Z,3.17
2023-04-24T22:53:37.307Z,2.42
2023-04-24T22:56:05.905Z,2.75
2023-04-24T22:58:34.127Z,2.80
2023-04-24T23:01:02.336Z,2.63
2023-04-24T23:03:32.172Z,3.22
2023-04-24T23:06:00.291Z,2.72
2023-04-24T23:08:30.563Z,3.05
2023-04-24T23:10:58.774Z,2.85
2023-04-24T23:13:27.255Z,3.00
2023-04-24T23:15:55.436Z,3.30
2023-04-24T23:18:23.516Z,3.30
2023-04-24T23:20:53.130Z,3.30
2023-04-24T23:23:21.249Z,4.13
2023-04-24T23:25:49.308Z,4.97
2023-04-24T23:28:17.335Z,4.28
2023-04-24T23:30:45.594Z,5.15
2023-04-24T23:33:14.043Z,5.00
2023-04-24T23:35:42.287Z,4.20
2023-04-24T23:38:11.960Z,4.57
2023-04-24T23:40:40.055Z,4.30
2023-04-24T23:43:08.796Z,4.57
2023-04-24T23:45:37.260Z,3.90
2023-04-24T23:48:06.037Z,3.35
2023-04-24T23:50:34.593Z,4.07
2023-04-24T23:53:03.106Z,3.90
2023-04-24T23:55:32.715Z,3.58
2023-04-24T23:58:00.848Z,3.75
